sensor_id;sensor_type;location;lat;lon;timestamp;P1;durP1;ratioP1;P2;durP2;ratioP2
19414;SDS011;9843;48.882;12.592;2022-12-29T00:00:16;12.70;;;11.37;;
19414;SDS011;9843;48.882;12.592;2022-12-29T00:02:44;15.17;;;10.20;;
19414;SDS011;9843;48.882;12.592;2022-12-29T00:05:11;10.47;;;9.47;;
19414;SDS011;9843;48.882;12.592;2022-12-29T00:07:39;11.63;;;10.43;;
19414;SDS011;9843;48.882;12.592;2022-12-29T00:10:06;11.10;;;9.97;;
19414;SDS011;9843;48.882;12.592;2022-12-29T00:12:33;11.53;;;9.43;;
19414;SDS011;9843;48.882;12.592;2022-12-29T00:15:14;19.40;;;11.93;;
19414;SDS011;9843;48.882;12.592;2022-12-29T00:18:01;12.07;;;10.70;;
19414;SDS011;9843;48.882;12.592;2022-12-29T00:20:28;12.73;;;10.50;;
19414;SDS011;9843;48.882;12.592;2022-12-29T00:23:13;13.03;;;10.87;;
19414;SDS011;9843;48.882;12.592;2022-12-29T00:25:57;12.63;;;11.33;;
19414;SDS011;9843;48.882;12.592;2022-12-29T00:28:42;13.47;;;10.87;;
19414;SDS011;9843;48.882;12.592;2022-12-29T00:31:27;12.60;;;11.30;;
19414;SDS011;9843;48.882;12.592;2022-12-29T00:34:13;12.87;;;10.80;;
19414;SDS011;9843;48.882;12.592;2022-12-29T00:36:58;11.87;;;9.27;;
19414;SDS011;9843;48.882;12.592;2022-12-29T00:39:25;17.57;;;11.23;;
19414;SDS011;9843;48.882;12.592;2022-12-29T00:42:10;11.33;;;10.00;;
19414;SDS011;9843;48.882;12.592;2022-12-29T00:45:01;12.90;;;10.33;;
19414;SDS011;9843;48.882;12.592;2022-12-29T00:47:28;11.30;;;9.83;;
19414;SDS011;9843;48.882;12.592;2022-12-29T00:49:56;9.80;;;8.97;;
19414;SDS011;9843;48.882;12.592;2022-12-29T00:52:22;14.40;;;9.87;;
19414;SDS011;9843;48.882;12.592;2022-12-29T00:54:49;11.63;;;10.53;;
19414;SDS011;9843;48.882;12.592;2022-12-29T00:57:16;11.77;;;9.77;;
19414;SDS011;9843;48.882;12.592;2022-12-29T00:59:43;10.60;;;9.47;;
19414;SDS011;9843;48.882;12.592;2022-12-29T01:02:11;15.87;;;9.13;;
19414;SDS011;9843;48.882;12.592;2022-12-29T01:04:38;11.53;;;10.37;;
19414;SDS011;9843;48.882;12.592;2022-12-29T01:07:06;10.40;;;9.40;;
19414;SDS011;9843;48.882;12.592;2022-12-29T01:09:33;12.53;;;9.90;;
19414;SDS011;9843;48.882;12.592;2022-12-29T01:12:18;12.20;;;10.90;;
19414;SDS011;9843;48.882;12.592;2022-12-29T01:15:06;14.87;;;11.77;;
19414;SDS011;9843;48.882;12.592;2022-12-29T01:17:33;13.80;;;10.83;;
19414;SDS011;9843;48.882;12.592;2022-12-29T01:20:01;10.67;;;9.57;;
19414;SDS011;9843;48.882;12.592;2022-12-29T01:22:29;15.43;;;10.73;;
19414;SDS011;9843;48.882;12.592;2022-12-29T01:24:56;10.60;;;9.67;;
19414;SDS011;9843;48.882;12.592;2022-12-29T01:27:23;12.27;;;11.03;;
19414;SDS011;9843;48.882;12.592;2022-12-29T01:29:50;12.67;;;11.03;;
19414;SDS011;9843;48.882;12.592;2022-12-29T01:32:17;13.73;;;10.17;;
19414;SDS011;9843;48.882;12.592;2022-12-29T01:34:44;12.20;;;9.37;;
19414;SDS011;9843;48.882;12.592;2022-12-29T01:37:11;11.33;;;10.37;;
19414;SDS011;9843;48.882;12.592;2022-12-29T01:39:40;14.80;;;10.27;;
19414;SDS011;9843;48.882;12.592;2022-12-29T01:42:10;10.53;;;9.43;;
19414;SDS011;9843;48.882;12.592;2022-12-29T01:44:50;9.97;;;8.97;;
19414;SDS011;9843;48.882;12.592;2022-12-29T01:47:20;11.07;;;10.07;;
19414;SDS011;9843;48.882;12.592;2022-12-29T01:49:49;13.10;;;10.07;;
19414;SDS011;9843;48.882;12.592;2022-12-29T01:52:17;17.70;;;12.10;;
19414;SDS011;9843;48.882;12.592;2022-12-29T01:54:46;11.47;;;10.40;;
19414;SDS011;9843;48.882;12.592;2022-12-29T01:57:15;12.27;;;10.37;;
19414;SDS011;9843;48.882;12.592;2022-12-29T01:59:46;9.83;;;8.93;;
19414;SDS011;9843;48.882;12.592;2022-12-29T02:02:14;12.77;;;10.30;;
19414;SDS011;9843;48.882;12.592;2022-12-29T02:04:41;12.03;;;10.60;;
19414;SDS011;9843;48.882;12.592;2022-12-29T02:07:10;10.47;;;9.53;;
19414;SDS011;9843;48.882;12.592;2022-12-29T02:09:40;15.33;;;10.47;;
19414;SDS011;9843;48.882;12.592;2022-12-29T02:12:09;10.53;;;9.43;;
19414;SDS011;9843;48.882;12.592;2022-12-29T02:14:36;15.33;;;10.30;;
19414;SDS011;9843;48.882;12.592;2022-12-29T02:17:05;11.60;;;10.37;;
19414;SDS011;9843;48.882;12.592;2022-12-29T02:19:56;11.77;;;9.57;;
19414;SDS011;9843;48.882;12.592;2022-12-29T02:22:32;14.13;;;11.90;;
19414;SDS011;9843;48.882;12.592;2022-12-29T02:25:09;11.33;;;10.13;;
19414;SDS011;9843;48.882;12.592;2022-12-29T02:30:42;15.33;;;9.90;;
19414;SDS011;9843;48.882;12.592;2022-12-29T02:33:13;12.40;;;10.53;;
19414;SDS011;9843;48.882;12.592;2022-12-29T02:35:46;11.20;;;9.53;;
19414;SDS011;9843;48.882;12.592;2022-12-29T02:38:18;9.80;;;8.77;;
19414;SDS011;9843;48.882;12.592;2022-12-29T02:40:48;11.00;;;9.90;;
19414;SDS011;9843;48.882;12.592;2022-12-29T02:43:19;13.90;;;9.77;;
19414;SDS011;9843;48.882;12.592;2022-12-29T02:45:51;11.80;;;9.40;;
19414;SDS011;9843;48.882;12.592;2022-12-29T02:48:21;10.97;;;9.93;;
19414;SDS011;9843;48.882;12.592;2022-12-29T02:50:52;11.70;;;9.70;;
19414;SDS011;9843;48.882;12.592;2022-12-29T02:53:21;10.17;;;8.77;;
19414;SDS011;9843;48.882;12.592;2022-12-29T02:56:04;13.63;;;10.83;;
19414;SDS011;9843;48.882;12.592;2022-12-29T02:58:31;14.40;;;11.80;;
19414;SDS011;9843;48.882;12.592;2022-12-29T03:01:03;9.83;;;8.93;;
19414;SDS011;9843;48.882;12.592;2022-12-29T03:03:36;11.30;;;10.13;;
19414;SDS011;9843;48.882;12.592;2022-12-29T03:08:52;10.00;;;9.03;;
19414;SDS011;9843;48.882;12.592;2022-12-29T03:11:21;10.00;;;9.10;;
19414;SDS011;9843;48.882;12.592;2022-12-29T03:14:11;12.43;;;8.67;;
19414;SDS011;9843;48.882;12.592;2022-12-29T03:17:03;9.23;;;8.30;;
19414;SDS011;9843;48.882;12.592;2022-12-29T03:19:36;10.13;;;8.07;;
19414;SDS011;9843;48.882;12.592;2022-12-29T03:22:04;10.60;;;9.60;;
19414;SDS011;9843;48.882;12.592;2022-12-29T03:24:50;10.97;;;9.17;;
19414;SDS011;9843;48.882;12.592;2022-12-29T03:27:19;11.97;;;8.80;;
19414;SDS011;9843;48.882;12.592;2022-12-29T03:29:49;9.90;;;8.67;;
19414;SDS011;9843;48.882;12.592;2022-12-29T03:32:20;11.17;;;8.43;;
19414;SDS011;9843;48.882;12.592;2022-12-29T03:34:48;10.10;;;8.97;;
19414;SDS011;9843;48.882;12.592;2022-12-29T03:37:17;11.17;;;9.10;;
19414;SDS011;9843;48.882;12.592;2022-12-29T03:39:45;9.73;;;8.83;;
19414;SDS011;9843;48.882;12.592;2022-12-29T03:42:12;12.03;;;9.50;;
19414;SDS011;9843;48.882;12.592;2022-12-29T03:44:42;10.73;;;9.33;;
19414;SDS011;9843;48.882;12.592;2022-12-29T03:47:10;10.77;;;9.10;;
19414;SDS011;9843;48.882;12.592;2022-12-29T03:49:38;14.47;;;7.37;;
19414;SDS011;9843;48.882;12.592;2022-12-29T03:52:05;8.43;;;7.63;;
19414;SDS011;9843;48.882;12.592;2022-12-29T03:54:32;8.37;;;7.57;;
19414;SDS011;9843;48.882;12.592;2022-12-29T03:56:59;11.87;;;9.40;;
19414;SDS011;9843;48.882;12.592;2022-12-29T03:59:26;8.83;;;7.63;;
19414;SDS011;9843;48.882;12.592;2022-12-29T04:01:54;9.03;;;8.07;;
19414;SDS011;9843;48.882;12.592;2022-12-29T04:04:21;9.47;;;8.43;;
19414;SDS011;9843;48.882;12.592;2022-12-29T04:06:49;10.23;;;8.10;;
19414;SDS011;9843;48.882;12.592;2022-12-29T04:09:16;12.47;;;9.30;;
19414;SDS011;9843;48.882;12.592;2022-12-29T04:11:43;12.47;;;9.80;;
19414;SDS011;9843;48.882;12.592;2022-12-29T04:14:10;9.00;;;7.73;;
19414;SDS011;9843;48.882;12.592;2022-12-29T04:16:37;9.37;;;8.57;;
19414;SDS011;9843;48.882;12.592;2022-12-29T04:19:04;14.73;;;10.40;;
19414;SDS011;9843;48.882;12.592;2022-12-29T04:21:32;10.57;;;8.00;;
19414;SDS011;9843;48.882;12.592;2022-12-29T04:24:00;8.60;;;7.50;;
19414;SDS011;9843;48.882;12.592;2022-12-29T04:26:27;8.70;;;7.80;;
19414;SDS011;9843;48.882;12.592;2022-12-29T04:28:54;11.07;;;8.27;;
19414;SDS011;9843;48.882;12.592;2022-12-29T04:31:21;9.73;;;8.83;;
19414;SDS011;9843;48.882;12.592;2022-12-29T04:33:48;10.90;;;9.20;;
19414;SDS011;9843;48.882;12.592;2022-12-29T04:36:15;10.90;;;8.53;;
19414;SDS011;9843;48.882;12.592;2022-12-29T04:38:42;12.17;;;9.27;;
19414;SDS011;9843;48.882;12.592;2022-12-29T04:41:11;10.63;;;8.33;;
19414;SDS011;9843;48.882;12.592;2022-12-29T04:43:38;8.23;;;6.93;;
19414;SDS011;9843;48.882;12.592;2022-12-29T04:46:05;9.13;;;8.23;;
19414;SDS011;9843;48.882;12.592;2022-12-29T04:48:32;9.47;;;8.20;;
19414;SDS011;9843;48.882;12.592;2022-12-29T04:50:59;9.27;;;8.37;;
19414;SDS011;9843;48.882;12.592;2022-12-29T04:53:26;10.93;;;8.80;;
19414;SDS011;9843;48.882;12.592;2022-12-29T04:55:54;10.40;;;8.40;;
19414;SDS011;9843;48.882;12.592;2022-12-29T04:58:22;9.50;;;8.53;;
19414;SDS011;9843;48.882;12.592;2022-12-29T05:00:50;11.10;;;9.40;;
19414;SDS011;9843;48.882;12.592;2022-12-29T05:03:17;11.13;;;8.47;;
19414;SDS011;9843;48.882;12.592;2022-12-29T05:05:44;7.40;;;6.57;;
19414;SDS011;9843;48.882;12.592;2022-12-29T05:08:11;8.43;;;7.70;;
19414;SDS011;9843;48.882;12.592;2022-12-29T05:10:38;10.10;;;7.93;;
19414;SDS011;9843;48.882;12.592;2022-12-29T05:13:05;11.33;;;7.60;;
19414;SDS011;9843;48.882;12.592;2022-12-29T05:15:33;8.57;;;7.77;;
19414;SDS011;9843;48.882;12.592;2022-12-29T05:18:00;14.73;;;9.23;;
19414;SDS011;9843;48.882;12.592;2022-12-29T05:20:28;8.17;;;7.00;;
19414;SDS011;9843;48.882;12.592;2022-12-29T05:22:55;6.77;;;6.23;;
19414;SDS011;9843;48.882;12.592;2022-12-29T05:25:22;8.43;;;7.07;;
19414;SDS011;9843;48.882;12.592;2022-12-29T05:27:49;8.50;;;7.37;;
19414;SDS011;9843;48.882;12.592;2022-12-29T05:30:16;7.57;;;6.77;;
19414;SDS011;9843;48.882;12.592;2022-12-29T05:32:44;7.67;;;6.63;;
19414;SDS011;9843;48.882;12.592;2022-12-29T05:35:11;7.67;;;6.90;;
19414;SDS011;9843;48.882;12.592;2022-12-29T05:37:38;11.17;;;6.40;;
19414;SDS011;9843;48.882;12.592;2022-12-29T05:40:06;9.67;;;8.60;;
19414;SDS011;9843;48.882;12.592;2022-12-29T05:42:33;6.67;;;6.07;;
19414;SDS011;9843;48.882;12.592;2022-12-29T05:45:00;8.50;;;7.80;;
19414;SDS011;9843;48.882;12.592;2022-12-29T05:47:27;6.97;;;6.27;;
19414;SDS011;9843;48.882;12.592;2022-12-29T05:49:56;6.57;;;6.07;;
19414;SDS011;9843;48.882;12.592;2022-12-29T05:52:23;8.40;;;6.67;;
19414;SDS011;9843;48.882;12.592;2022-12-29T05:54:50;12.10;;;6.80;;
19414;SDS011;9843;48.882;12.592;2022-12-29T05:57:17;8.63;;;6.73;;
19414;SDS011;9843;48.882;12.592;2022-12-29T05:59:44;7.87;;;6.80;;
19414;SDS011;9843;48.882;12.592;2022-12-29T06:02:11;7.23;;;6.53;;
19414;SDS011;9843;48.882;12.592;2022-12-29T06:04:38;9.70;;;5.73;;
19414;SDS011;9843;48.882;12.592;2022-12-29T06:07:07;13.33;;;7.93;;
19414;SDS011;9843;48.882;12.592;2022-12-29T06:09:34;7.07;;;6.47;;
19414;SDS011;9843;48.882;12.592;2022-12-29T06:12:01;6.50;;;5.80;;
19414;SDS011;9843;48.882;12.592;2022-12-29T06:14:28;7.30;;;5.87;;
19414;SDS011;9843;48.882;12.592;2022-12-29T06:16:55;9.03;;;6.50;;
19414;SDS011;9843;48.882;12.592;2022-12-29T06:19:22;7.57;;;6.73;;
19414;SDS011;9843;48.882;12.592;2022-12-29T06:21:49;7.60;;;6.90;;
19414;SDS011;9843;48.882;12.592;2022-12-29T06:24:18;6.33;;;5.73;;
19414;SDS011;9843;48.882;12.592;2022-12-29T06:26:45;7.83;;;6.07;;
19414;SDS011;9843;48.882;12.592;2022-12-29T06:29:12;7.63;;;6.80;;
19414;SDS011;9843;48.882;12.592;2022-12-29T06:31:42;7.03;;;6.07;;
19414;SDS011;9843;48.882;12.592;2022-12-29T06:34:10;9.30;;;7.70;;
19414;SDS011;9843;48.882;12.592;2022-12-29T06:36:37;5.70;;;5.30;;
19414;SDS011;9843;48.882;12.592;2022-12-29T06:39:04;6.67;;;6.07;;
19414;SDS011;9843;48.882;12.592;2022-12-29T06:41:33;8.17;;;7.47;;
19414;SDS011;9843;48.882;12.592;2022-12-29T06:44:00;7.00;;;6.43;;
19414;SDS011;9843;48.882;12.592;2022-12-29T06:46:27;6.40;;;5.80;;
19414;SDS011;9843;48.882;12.592;2022-12-29T06:48:54;6.93;;;6.33;;
19414;SDS011;9843;48.882;12.592;2022-12-29T06:51:21;6.50;;;5.90;;
19414;SDS011;9843;48.882;12.592;2022-12-29T06:53:48;8.13;;;6.27;;
19414;SDS011;9843;48.882;12.592;2022-12-29T06:56:15;8.23;;;6.50;;
19414;SDS011;9843;48.882;12.592;2022-12-29T06:58:43;7.17;;;6.57;;
19414;SDS011;9843;48.882;12.592;2022-12-29T07:01:10;6.87;;;6.23;;
19414;SDS011;9843;48.882;12.592;2022-12-29T07:03:37;6.77;;;6.07;;
19414;SDS011;9843;48.882;12.592;2022-12-29T07:06:05;6.13;;;5.63;;
19414;SDS011;9843;48.882;12.592;2022-12-29T07:08:32;6.70;;;6.10;;
19414;SDS011;9843;48.882;12.592;2022-12-29T07:10:59;6.90;;;5.43;;
19414;SDS011;9843;48.882;12.592;2022-12-29T07:13:26;7.33;;;6.50;;
19414;SDS011;9843;48.882;12.592;2022-12-29T07:15:54;12.37;;;8.63;;
19414;SDS011;9843;48.882;12.592;2022-12-29T07:18:21;6.27;;;5.77;;
19414;SDS011;9843;48.882;12.592;2022-12-29T07:20:48;8.33;;;5.93;;
19414;SDS011;9843;48.882;12.592;2022-12-29T07:23:16;7.23;;;6.53;;
19414;SDS011;9843;48.882;12.592;2022-12-29T07:25:43;8.50;;;7.07;;
19414;SDS011;9843;48.882;12.592;2022-12-29T07:28:10;7.03;;;6.50;;
19414;SDS011;9843;48.882;12.592;2022-12-29T07:30:37;8.00;;;6.83;;
19414;SDS011;9843;48.882;12.592;2022-12-29T07:33:05;6.93;;;6.20;;
19414;SDS011;9843;48.882;12.592;2022-12-29T07:35:33;9.73;;;7.43;;
19414;SDS011;9843;48.882;12.592;2022-12-29T07:38:00;6.80;;;6.17;;
19414;SDS011;9843;48.882;12.592;2022-12-29T07:40:27;6.97;;;5.57;;
19414;SDS011;9843;48.882;12.592;2022-12-29T07:42:54;8.80;;;5.73;;
19414;SDS011;9843;48.882;12.592;2022-12-29T07:45:21;5.93;;;5.43;;
19414;SDS011;9843;48.882;12.592;2022-12-29T07:47:48;11.70;;;8.53;;
19414;SDS011;9843;48.882;12.592;2022-12-29T07:50:17;6.63;;;6.13;;
19414;SDS011;9843;48.882;12.592;2022-12-29T07:52:44;6.03;;;5.43;;
19414;SDS011;9843;48.882;12.592;2022-12-29T07:55:12;7.57;;;6.17;;
19414;SDS011;9843;48.882;12.592;2022-12-29T07:57:40;7.17;;;6.57;;
19414;SDS011;9843;48.882;12.592;2022-12-29T08:00:07;8.70;;;5.67;;
19414;SDS011;9843;48.882;12.592;2022-12-29T08:02:34;6.97;;;6.37;;
19414;SDS011;9843;48.882;12.592;2022-12-29T08:05:01;7.17;;;5.80;;
19414;SDS011;9843;48.882;12.592;2022-12-29T08:07:30;6.10;;;5.70;;
19414;SDS011;9843;48.882;12.592;2022-12-29T08:09:57;6.53;;;5.87;;
19414;SDS011;9843;48.882;12.592;2022-12-29T08:12:24;5.90;;;5.27;;
19414;SDS011;9843;48.882;12.592;2022-12-29T08:14:51;6.40;;;5.40;;
19414;SDS011;9843;48.882;12.592;2022-12-29T08:17:18;8.03;;;6.50;;
19414;SDS011;9843;48.882;12.592;2022-12-29T08:19:45;6.63;;;5.57;;
19414;SDS011;9843;48.882;12.592;2022-12-29T08:22:13;7.00;;;6.30;;
19414;SDS011;9843;48.882;12.592;2022-12-29T08:24:41;8.63;;;6.27;;
19414;SDS011;9843;48.882;12.592;2022-12-29T08:27:08;9.00;;;6.13;;
19414;SDS011;9843;48.882;12.592;2022-12-29T08:29:35;5.57;;;5.07;;
19414;SDS011;9843;48.882;12.592;2022-12-29T08:32:02;7.23;;;6.10;;
19414;SDS011;9843;48.882;12.592;2022-12-29T08:34:30;11.43;;;5.87;;
19414;SDS011;9843;48.882;12.592;2022-12-29T08:36:57;6.23;;;4.97;;
19414;SDS011;9843;48.882;12.592;2022-12-29T08:39:24;14.07;;;6.40;;
19414;SDS011;9843;48.882;12.592;2022-12-29T08:41:52;6.50;;;5.90;;
19414;SDS011;9843;48.882;12.592;2022-12-29T08:44:20;6.10;;;5.50;;
19414;SDS011;9843;48.882;12.592;2022-12-29T08:46:47;7.67;;;5.17;;
19414;SDS011;9843;48.882;12.592;2022-12-29T08:49:14;9.87;;;5.40;;
19414;SDS011;9843;48.882;12.592;2022-12-29T08:51:41;8.57;;;7.50;;
19414;SDS011;9843;48.882;12.592;2022-12-29T08:54:08;11.03;;;6.27;;
19414;SDS011;9843;48.882;12.592;2022-12-29T08:56:35;10.30;;;5.90;;
19414;SDS011;9843;48.882;12.592;2022-12-29T08:59:04;5.53;;;5.03;;
19414;SDS011;9843;48.882;12.592;2022-12-29T09:01:31;5.93;;;4.97;;
19414;SDS011;9843;48.882;12.592;2022-12-29T09:03:58;7.73;;;6.23;;
19414;SDS011;9843;48.882;12.592;2022-12-29T09:06:25;7.43;;;6.10;;
19414;SDS011;9843;48.882;12.592;2022-12-29T09:08:53;8.17;;;6.63;;
19414;SDS011;9843;48.882;12.592;2022-12-29T09:11:21;5.70;;;5.20;;
19414;SDS011;9843;48.882;12.592;2022-12-29T09:13:48;7.33;;;6.67;;
19414;SDS011;9843;48.882;12.592;2022-12-29T09:16:17;5.93;;;5.33;;
19414;SDS011;9843;48.882;12.592;2022-12-29T09:18:44;6.87;;;5.73;;
19414;SDS011;9843;48.882;12.592;2022-12-29T09:21:11;8.03;;;6.77;;
19414;SDS011;9843;48.882;12.592;2022-12-29T09:23:38;10.33;;;5.57;;
19414;SDS011;9843;48.882;12.592;2022-12-29T09:26:07;7.10;;;5.60;;
19414;SDS011;9843;48.882;12.592;2022-12-29T09:28:34;7.17;;;6.47;;
19414;SDS011;9843;48.882;12.592;2022-12-29T09:31:02;6.23;;;5.57;;
19414;SDS011;9843;48.882;12.592;2022-12-29T09:33:32;5.50;;;5.00;;
19414;SDS011;9843;48.882;12.592;2022-12-29T09:36:02;6.83;;;5.33;;
19414;SDS011;9843;48.882;12.592;2022-12-29T09:38:29;6.47;;;5.40;;
19414;SDS011;9843;48.882;12.592;2022-12-29T09:40:59;7.83;;;6.60;;
19414;SDS011;9843;48.882;12.592;2022-12-29T09:43:32;6.03;;;5.43;;
19414;SDS011;9843;48.882;12.592;2022-12-29T09:46:07;7.17;;;4.93;;
19414;SDS011;9843;48.882;12.592;2022-12-29T09:48:39;5.73;;;5.33;;
19414;SDS011;9843;48.882;12.592;2022-12-29T09:51:08;5.77;;;5.37;;
19414;SDS011;9843;48.882;12.592;2022-12-29T09:53:37;6.83;;;5.27;;
19414;SDS011;9843;48.882;12.592;2022-12-29T09:56:07;10.97;;;5.87;;
19414;SDS011;9843;48.882;12.592;2022-12-29T09:58:38;7.43;;;5.83;;
19414;SDS011;9843;48.882;12.592;2022-12-29T10:01:07;4.87;;;4.17;;
19414;SDS011;9843;48.882;12.592;2022-12-29T10:03:40;5.83;;;4.90;;
19414;SDS011;9843;48.882;12.592;2022-12-29T10:06:10;4.93;;;4.50;;
19414;SDS011;9843;48.882;12.592;2022-12-29T10:08:39;7.67;;;4.90;;
19414;SDS011;9843;48.882;12.592;2022-12-29T10:11:09;5.47;;;4.87;;
19414;SDS011;9843;48.882;12.592;2022-12-29T10:13:41;5.57;;;5.07;;
19414;SDS011;9843;48.882;12.592;2022-12-29T10:16:11;4.70;;;4.30;;
19414;SDS011;9843;48.882;12.592;2022-12-29T10:18:51;4.73;;;4.27;;
19414;SDS011;9843;48.882;12.592;2022-12-29T10:21:26;6.03;;;5.43;;
19414;SDS011;9843;48.882;12.592;2022-12-29T10:23:55;5.47;;;4.30;;
19414;SDS011;9843;48.882;12.592;2022-12-29T10:26:23;6.13;;;4.43;;
19414;SDS011;9843;48.882;12.592;2022-12-29T10:28:54;6.10;;;4.27;;
19414;SDS011;9843;48.882;12.592;2022-12-29T10:31:23;5.67;;;4.73;;
19414;SDS011;9843;48.882;12.592;2022-12-29T10:33:53;4.87;;;4.40;;
19414;SDS011;9843;48.882;12.592;2022-12-29T10:36:24;5.57;;;5.07;;
19414;SDS011;9843;48.882;12.592;2022-12-29T10:38:58;5.13;;;4.70;;
19414;SDS011;9843;48.882;12.592;2022-12-29T10:41:32;13.33;;;4.87;;
19414;SDS011;9843;48.882;12.592;2022-12-29T10:43:59;8.40;;;5.60;;
19414;SDS011;9843;48.882;12.592;2022-12-29T10:46:27;5.47;;;4.90;;
19414;SDS011;9843;48.882;12.592;2022-12-29T10:48:56;8.53;;;4.70;;
19414;SDS011;9843;48.882;12.592;2022-12-29T10:51:24;5.83;;;5.10;;
19414;SDS011;9843;48.882;12.592;2022-12-29T10:53:53;6.30;;;5.80;;
19414;SDS011;9843;48.882;12.592;2022-12-29T10:56:24;5.57;;;5.07;;
19414;SDS011;9843;48.882;12.592;2022-12-29T10:58:52;6.87;;;5.00;;
19414;SDS011;9843;48.882;12.592;2022-12-29T11:01:21;6.07;;;5.47;;
19414;SDS011;9843;48.882;12.592;2022-12-29T11:03:55;7.73;;;5.20;;
19414;SDS011;9843;48.882;12.592;2022-12-29T11:06:27;5.63;;;5.03;;
19414;SDS011;9843;48.882;12.592;2022-12-29T11:08:56;5.30;;;4.83;;
19414;SDS011;9843;48.882;12.592;2022-12-29T11:11:25;7.97;;;4.93;;
19414;SDS011;9843;48.882;12.592;2022-12-29T11:13:56;6.13;;;5.23;;
19414;SDS011;9843;48.882;12.592;2022-12-29T11:16:27;7.03;;;6.23;;
19414;SDS011;9843;48.882;12.592;2022-12-29T11:18:56;12.87;;;5.53;;
19414;SDS011;9843;48.882;12.592;2022-12-29T11:21:25;4.63;;;4.17;;
19414;SDS011;9843;48.882;12.592;2022-12-29T11:23:56;6.40;;;5.30;;
19414;SDS011;9843;48.882;12.592;2022-12-29T11:26:24;7.97;;;5.37;;
19414;SDS011;9843;48.882;12.592;2022-12-29T11:31:39;6.17;;;4.10;;
19414;SDS011;9843;48.882;12.592;2022-12-29T11:34:06;5.50;;;5.00;;
19414;SDS011;9843;48.882;12.592;2022-12-29T11:36:33;4.40;;;4.00;;
19414;SDS011;9843;48.882;12.592;2022-12-29T11:39:02;9.13;;;5.00;;
19414;SDS011;9843;48.882;12.592;2022-12-29T11:41:30;6.03;;;3.50;;
19414;SDS011;9843;48.882;12.592;2022-12-29T11:43:58;4.70;;;4.20;;
19414;SDS011;9843;48.882;12.592;2022-12-29T11:46:27;4.63;;;4.00;;
19414;SDS011;9843;48.882;12.592;2022-12-29T11:48:54;5.17;;;4.40;;
19414;SDS011;9843;48.882;12.592;2022-12-29T11:51:25;5.10;;;4.20;;
19414;SDS011;9843;48.882;12.592;2022-12-29T11:53:55;7.73;;;5.33;;
19414;SDS011;9843;48.882;12.592;2022-12-29T11:56:32;5.07;;;4.67;;
19414;SDS011;9843;48.882;12.592;2022-12-29T12:01:41;7.93;;;6.57;;
19414;SDS011;9843;48.882;12.592;2022-12-29T12:04:11;7.73;;;5.00;;
19414;SDS011;9843;48.882;12.592;2022-12-29T12:06:41;6.63;;;5.10;;
19414;SDS011;9843;48.882;12.592;2022-12-29T12:09:14;12.27;;;4.70;;
19414;SDS011;9843;48.882;12.592;2022-12-29T12:11:44;5.07;;;4.17;;
19414;SDS011;9843;48.882;12.592;2022-12-29T12:14:12;8.00;;;6.30;;
19414;SDS011;9843;48.882;12.592;2022-12-29T12:16:41;4.87;;;4.47;;
19414;SDS011;9843;48.882;12.592;2022-12-29T12:19:12;6.47;;;4.90;;
19414;SDS011;9843;48.882;12.592;2022-12-29T12:21:41;4.67;;;3.77;;
19414;SDS011;9843;48.882;12.592;2022-12-29T12:24:15;6.93;;;4.17;;
19414;SDS011;9843;48.882;12.592;2022-12-29T12:26:48;7.97;;;4.07;;
19414;SDS011;9843;48.882;12.592;2022-12-29T12:29:20;5.20;;;4.23;;
19414;SDS011;9843;48.882;12.592;2022-12-29T12:31:49;5.23;;;4.57;;
19414;SDS011;9843;48.882;12.592;2022-12-29T12:34:19;6.07;;;4.73;;
19414;SDS011;9843;48.882;12.592;2022-12-29T12:36:50;5.57;;;4.70;;
19414;SDS011;9843;48.882;12.592;2022-12-29T12:39:22;5.77;;;4.73;;
19414;SDS011;9843;48.882;12.592;2022-12-29T12:41:56;5.10;;;4.57;;
19414;SDS011;9843;48.882;12.592;2022-12-29T12:44:27;10.07;;;5.30;;
19414;SDS011;9843;48.882;12.592;2022-12-29T12:47:06;9.10;;;5.93;;
19414;SDS011;9843;48.882;12.592;2022-12-29T12:52:22;5.30;;;4.80;;
19414;SDS011;9843;48.882;12.592;2022-12-29T12:55:01;4.67;;;4.27;;
19414;SDS011;9843;48.882;12.592;2022-12-29T12:57:35;7.70;;;6.00;;
19414;SDS011;9843;48.882;12.592;2022-12-29T13:00:09;6.77;;;4.57;;
19414;SDS011;9843;48.882;12.592;2022-12-29T13:02:40;11.70;;;5.70;;
19414;SDS011;9843;48.882;12.592;2022-12-29T13:05:16;5.17;;;4.63;;
19414;SDS011;9843;48.882;12.592;2022-12-29T13:07:51;5.40;;;4.90;;
19414;SDS011;9843;48.882;12.592;2022-12-29T13:10:25;6.67;;;6.00;;
19414;SDS011;9843;48.882;12.592;2022-12-29T13:13:00;7.37;;;4.53;;
19414;SDS011;9843;48.882;12.592;2022-12-29T13:15:35;6.90;;;5.30;;
19414;SDS011;9843;48.882;12.592;2022-12-29T13:18:10;5.83;;;5.13;;
19414;SDS011;9843;48.882;12.592;2022-12-29T13:20:43;8.33;;;6.07;;
19414;SDS011;9843;48.882;12.592;2022-12-29T13:23:13;5.47;;;4.50;;
19414;SDS011;9843;48.882;12.592;2022-12-29T13:25:43;8.47;;;5.73;;
19414;SDS011;9843;48.882;12.592;2022-12-29T13:28:16;6.77;;;5.03;;
19414;SDS011;9843;48.882;12.592;2022-12-29T13:30:49;3.63;;;3.33;;
19414;SDS011;9843;48.882;12.592;2022-12-29T13:33:21;8.47;;;7.07;;
19414;SDS011;9843;48.882;12.592;2022-12-29T13:35:53;6.13;;;4.70;;
19414;SDS011;9843;48.882;12.592;2022-12-29T13:38:22;7.13;;;5.27;;
19414;SDS011;9843;48.882;12.592;2022-12-29T13:40:52;7.27;;;4.90;;
19414;SDS011;9843;48.882;12.592;2022-12-29T13:43:21;8.10;;;5.17;;
19414;SDS011;9843;48.882;12.592;2022-12-29T13:45:50;12.47;;;5.00;;
19414;SDS011;9843;48.882;12.592;2022-12-29T13:48:20;6.30;;;4.50;;
19414;SDS011;9843;48.882;12.592;2022-12-29T13:50:55;8.57;;;4.93;;
19414;SDS011;9843;48.882;12.592;2022-12-29T13:53:24;8.67;;;5.40;;
19414;SDS011;9843;48.882;12.592;2022-12-29T13:55:57;11.63;;;7.10;;
19414;SDS011;9843;48.882;12.592;2022-12-29T13:58:30;7.43;;;6.17;;
19414;SDS011;9843;48.882;12.592;2022-12-29T14:01:00;7.47;;;5.90;;
19414;SDS011;9843;48.882;12.592;2022-12-29T14:03:40;7.63;;;6.13;;
19414;SDS011;9843;48.882;12.592;2022-12-29T14:06:22;8.37;;;5.30;;
19414;SDS011;9843;48.882;12.592;2022-12-29T14:08:51;12.43;;;6.90;;
19414;SDS011;9843;48.882;12.592;2022-12-29T14:11:20;8.73;;;5.50;;
19414;SDS011;9843;48.882;12.592;2022-12-29T14:13:50;8.13;;;4.93;;
19414;SDS011;9843;48.882;12.592;2022-12-29T14:16:24;6.57;;;5.10;;
19414;SDS011;9843;48.882;12.592;2022-12-29T14:18:52;10.53;;;5.90;;
19414;SDS011;9843;48.882;12.592;2022-12-29T14:21:19;9.13;;;5.30;;
19414;SDS011;9843;48.882;12.592;2022-12-29T14:23:48;6.20;;;5.60;;
19414;SDS011;9843;48.882;12.592;2022-12-29T14:26:17;11.17;;;5.33;;
19414;SDS011;9843;48.882;12.592;2022-12-29T14:28:45;6.43;;;5.80;;
19414;SDS011;9843;48.882;12.592;2022-12-29T14:36:42;7.43;;;6.60;;
19414;SDS011;9843;48.882;12.592;2022-12-29T14:39:32;7.60;;;5.37;;
19414;SDS011;9843;48.882;12.592;2022-12-29T14:41:59;7.47;;;6.70;;
19414;SDS011;9843;48.882;12.592;2022-12-29T14:44:27;8.50;;;6.53;;
19414;SDS011;9843;48.882;12.592;2022-12-29T14:46:55;13.90;;;5.87;;
19414;SDS011;9843;48.882;12.592;2022-12-29T14:49:22;6.40;;;5.50;;
19414;SDS011;9843;48.882;12.592;2022-12-29T14:51:52;10.53;;;6.87;;
19414;SDS011;9843;48.882;12.592;2022-12-29T14:57:08;9.00;;;6.47;;
19414;SDS011;9843;48.882;12.592;2022-12-29T14:59:37;8.80;;;5.53;;
19414;SDS011;9843;48.882;12.592;2022-12-29T15:02:10;6.63;;;5.30;;
19414;SDS011;9843;48.882;12.592;2022-12-29T15:04:39;6.67;;;5.97;;
19414;SDS011;9843;48.882;12.592;2022-12-29T15:07:08;7.37;;;5.93;;
19414;SDS011;9843;48.882;12.592;2022-12-29T15:09:36;9.13;;;6.00;;
19414;SDS011;9843;48.882;12.592;2022-12-29T15:12:04;11.63;;;9.10;;
19414;SDS011;9843;48.882;12.592;2022-12-29T15:14:34;15.00;;;9.80;;
19414;SDS011;9843;48.882;12.592;2022-12-29T15:17:02;19.10;;;10.03;;